sensor_id;sensor_type;location;lat;lon;timestamp;temperature;humidity
21676;DHT22;10999;51.332;9.458;2024-01-27T12:07:00;7.80;57.20
21676;DHT22;10999;51.332;9.458;2024-01-27T12:09:28;8.10;53.40
21676;DHT22;10999;51.332;9.458;2024-01-27T12:11:54;8.10;54.60
21676;DHT22;10999;51.332;9.458;2024-01-27T12:14:21;8.00;53.20
21676;DHT22;10999;51.332;9.458;2024-01-27T12:16:48;8.10;57.10
21676;DHT22;10999;51.332;9.458;2024-01-27T12:19:15;8.20;56.00
21676;DHT22;10999;51.332;9.458;2024-01-27T12:21:48;8.20;56.10
21676;DHT22;10999;51.332;9.458;2024-01-27T12:24:16;8.30;54.30
21676;DHT22;10999;51.332;9.458;2024-01-27T12:26:48;8.30;56.10
21676;DHT22;10999;51.332;9.458;2024-01-27T12:29:14;8.40;53.90
21676;DHT22;10999;51.332;9.458;2024-01-27T12:31:41;8.30;53.20
21676;DHT22;10999;51.332;9.458;2024-01-27T12:34:08;8.20;52.70
21676;DHT22;10999;51.332;9.458;2024-01-27T12:36:43;8.20;52.30
21676;DHT22;10999;51.332;9.458;2024-01-27T12:39:10;8.10;52.90
21676;DHT22;10999;51.332;9.458;2024-01-27T12:41:37;8.20;54.20
21676;DHT22;10999;51.332;9.458;2024-01-27T12:44:06;8.20;54.60
21676;DHT22;10999;51.332;9.458;2024-01-27T12:46:32;8.20;52.50
21676;DHT22;10999;51.332;9.458;2024-01-27T12:48:59;8.20;53.50
21676;DHT22;10999;51.332;9.458;2024-01-27T12:51:26;8.30;55.70
21676;DHT22;10999;51.332;9.458;2024-01-27T12:53:53;8.20;52.30
21676;DHT22;10999;51.332;9.458;2024-01-27T12:56:20;8.30;52.60
21676;DHT22;10999;51.332;9.458;2024-01-27T12:58:47;8.30;52.60
21676;DHT22;10999;51.332;9.458;2024-01-27T13:01:14;8.30;52.40
21676;DHT22;10999;51.332;9.458;2024-01-27T13:03:40;8.40;51.90
21676;DHT22;10999;51.332;9.458;2024-01-27T13:06:12;8.40;50.50
21676;DHT22;10999;51.332;9.458;2024-01-27T13:08:40;8.40;48.30
21676;DHT22;10999;51.332;9.458;2024-01-27T13:11:08;8.50;47.50
21676;DHT22;10999;51.332;9.458;2024-01-27T13:13:35;8.50;48.30
21676;DHT22;10999;51.332;9.458;2024-01-27T13:16:01;8.50;45.60
21676;DHT22;10999;51.332;9.458;2024-01-27T13:18:28;8.60;46.10
21676;DHT22;10999;51.332;9.458;2024-01-27T13:20:55;8.60;45.10
21676;DHT22;10999;51.332;9.458;2024-01-27T13:23:22;8.60;44.90
21676;DHT22;10999;51.332;9.458;2024-01-27T13:25:49;8.50;44.00
21676;DHT22;10999;51.332;9.458;2024-01-27T13:28:36;8.50;45.70
21676;DHT22;10999;51.332;9.458;2024-01-27T13:31:03;8.50;44.90
21676;DHT22;10999;51.332;9.458;2024-01-27T13:33:31;8.40;43.60
21676;DHT22;10999;51.332;9.458;2024-01-27T13:36:00;8.40;43.90
21676;DHT22;10999;51.332;9.458;2024-01-27T13:38:27;8.40;43.60
21676;DHT22;10999;51.332;9.458;2024-01-27T13:40:53;8.40;44.70
21676;DHT22;10999;51.332;9.458;2024-01-27T13:43:20;8.50;45.30
21676;DHT22;10999;51.332;9.458;2024-01-27T13:45:47;8.40;45.40
21676;DHT22;10999;51.332;9.458;2024-01-27T13:48:14;8.50;44.60
21676;DHT22;10999;51.332;9.458;2024-01-27T13:50:42;8.50;43.80
21676;DHT22;10999;51.332;9.458;2024-01-27T13:53:09;8.50;44.10
21676;DHT22;10999;51.332;9.458;2024-01-27T13:55:36;8.50;43.40
21676;DHT22;10999;51.332;9.458;2024-01-27T13:58:04;8.40;43.40
21676;DHT22;10999;51.332;9.458;2024-01-27T14:00:31;8.40;43.80
21676;DHT22;10999;51.332;9.458;2024-01-27T14:03:01;8.40;44.60
21676;DHT22;10999;51.332;9.458;2024-01-27T14:05:28;8.30;43.70
21676;DHT22;10999;51.332;9.458;2024-01-27T14:07:57;8.30;44.30
21676;DHT22;10999;51.332;9.458;2024-01-27T14:10:24;8.30;44.10
21676;DHT22;10999;51.332;9.458;2024-01-27T14:12:51;8.20;44.40
21676;DHT22;10999;51.332;9.458;2024-01-27T14:15:18;8.20;45.10
21676;DHT22;10999;51.332;9.458;2024-01-27T14:17:45;8.20;45.10
21676;DHT22;10999;51.332;9.458;2024-01-27T14:20:12;8.20;44.80
21676;DHT22;10999;51.332;9.458;2024-01-27T14:22:40;8.20;44.70
21676;DHT22;10999;51.332;9.458;2024-01-27T14:25:07;8.20;44.60
21676;DHT22;10999;51.332;9.458;2024-01-27T14:27:34;8.20;44.90
21676;DHT22;10999;51.332;9.458;2024-01-27T14:30:02;8.20;45.40
21676;DHT22;10999;51.332;9.458;2024-01-27T14:32:28;8.20;45.20
21676;DHT22;10999;51.332;9.458;2024-01-27T14:34:55;8.20;45.60
21676;DHT22;10999;51.332;9.458;2024-01-27T14:37:23;8.20;46.10
21676;DHT22;10999;51.332;9.458;2024-01-27T14:39:50;8.10;46.00
21676;DHT22;10999;51.332;9.458;2024-01-27T14:42:16;8.10;45.90
21676;DHT22;10999;51.332;9.458;2024-01-27T14:44:44;8.00;46.30
21676;DHT22;10999;51.332;9.458;2024-01-27T14:47:16;8.00;47.50
21676;DHT22;10999;51.332;9.458;2024-01-27T14:49:42;7.90;47.00
21676;DHT22;10999;51.332;9.458;2024-01-27T14:52:12;7.90;47.90
21676;DHT22;10999;51.332;9.458;2024-01-27T14:54:39;7.80;48.30
21676;DHT22;10999;51.332;9.458;2024-01-27T14:57:06;7.80;48.40
21676;DHT22;10999;51.332;9.458;2024-01-27T14:59:37;7.70;48.40
21676;DHT22;10999;51.332;9.458;2024-01-27T15:02:06;7.70;48.40
21676;DHT22;10999;51.332;9.458;2024-01-27T15:04:34;7.70;48.60
21676;DHT22;10999;51.332;9.458;2024-01-27T15:07:01;7.60;48.70
21676;DHT22;10999;51.332;9.458;2024-01-27T15:09:28;7.60;49.00
21676;DHT22;10999;51.332;9.458;2024-01-27T15:11:55;7.50;49.60
21676;DHT22;10999;51.332;9.458;2024-01-27T15:14:22;7.40;50.10
21676;DHT22;10999;51.332;9.458;2024-01-27T15:16:51;7.40;50.80
21676;DHT22;10999;51.332;9.458;2024-01-27T15:19:17;7.40;51.50
21676;DHT22;10999;51.332;9.458;2024-01-27T15:21:45;7.30;51.70
21676;DHT22;10999;51.332;9.458;2024-01-27T15:24:12;7.30;52.70
21676;DHT22;10999;51.332;9.458;2024-01-27T15:26:39;7.20;52.50
21676;DHT22;10999;51.332;9.458;2024-01-27T15:29:06;7.20;53.10
21676;DHT22;10999;51.332;9.458;2024-01-27T15:31:32;7.10;53.60
21676;DHT22;10999;51.332;9.458;2024-01-27T15:33:59;7.10;54.10
21676;DHT22;10999;51.332;9.458;2024-01-27T15:36:26;7.00;54.50
21676;DHT22;10999;51.332;9.458;2024-01-27T15:38:53;6.90;54.90
21676;DHT22;10999;51.332;9.458;2024-01-27T15:41:20;6.90;55.30
21676;DHT22;10999;51.332;9.458;2024-01-27T15:43:46;6.90;55.60
21676;DHT22;10999;51.332;9.458;2024-01-27T15:46:15;6.80;55.70
21676;DHT22;10999;51.332;9.458;2024-01-27T15:48:42;6.70;56.30
21676;DHT22;10999;51.332;9.458;2024-01-27T15:51:09;6.70;56.70
21676;DHT22;10999;51.332;9.458;2024-01-27T15:53:36;6.70;57.20
21676;DHT22;10999;51.332;9.458;2024-01-27T15:56:03;6.60;57.60
21676;DHT22;10999;51.332;9.458;2024-01-27T15:58:31;6.50;58.20
21676;DHT22;10999;51.332;9.458;2024-01-27T16:00:58;6.40;58.60
21676;DHT22;10999;51.332;9.458;2024-01-27T16:03:25;6.30;59.10
21676;DHT22;10999;51.332;9.458;2024-01-27T16:05:52;6.30;59.90
21676;DHT22;10999;51.332;9.458;2024-01-27T16:08:19;6.10;60.10
21676;DHT22;10999;51.332;9.458;2024-01-27T16:10:46;6.10;60.50
21676;DHT22;10999;51.332;9.458;2024-01-27T16:13:14;5.90;61.30
21676;DHT22;10999;51.332;9.458;2024-01-27T16:15:41;5.90;61.60
21676;DHT22;10999;51.332;9.458;2024-01-27T16:18:08;5.80;61.90
21676;DHT22;10999;51.332;9.458;2024-01-27T16:20:35;5.70;62.50
21676;DHT22;10999;51.332;9.458;2024-01-27T16:23:02;5.60;62.80
21676;DHT22;10999;51.332;9.458;2024-01-27T16:25:29;5.50;63.70
21676;DHT22;10999;51.332;9.458;2024-01-27T16:27:56;5.40;63.90
21676;DHT22;10999;51.332;9.458;2024-01-27T16:30:50;5.40;64.30
21676;DHT22;10999;51.332;9.458;2024-01-27T16:33:16;5.30;64.90
21676;DHT22;10999;51.332;9.458;2024-01-27T16:35:44;5.20;65.40
21676;DHT22;10999;51.332;9.458;2024-01-27T16:38:17;5.10;66.10
21676;DHT22;10999;51.332;9.458;2024-01-27T16:41:49;5.10;66.60
